Time;durP1;ratioP1;P1;durP2;ratioP2;P2;SDS_P1;SDS_P2;PMS_P1;PMS_P2;Temp;Humidity;BMP_temperature;BMP_pressure;BME280_temperature;BME280_humidity;BME280_pressure;Samples;Min_cycle;Max_cycle;Signal;HPM_P1;HPM_P2
2023/12/09 00:00:50;;;;;;;12.10;11.70;;;3.10;99.90;;;;;;5109542;28;20237;-83
2023/12/09 00:03:21;;;;;;;12.60;12.20;;;3.10;99.90;;;;;;5127910;28;20237;-84
2023/12/09 00:05:54;;;;;;;12.50;12.10;;;3.10;99.90;;;;;;5121448;28;20260;-83
2023/12/09 00:08:22;;;;;;;12.60;12.20;;;3.10;99.90;;;;;;5117768;27;20209;-84
2023/12/09 00:10:50;;;;;;;12.53;12.13;;;3.10;99.90;;;;;;5125798;28;21061;-86
2023/12/09 00:13:19;;;;;;;12.20;11.80;;;3.10;99.90;;;;;;5125792;28;20282;-85
2023/12/09 00:15:50;;;;;;;12.20;11.80;;;3.10;99.90;;;;;;5124778;27;20224;-85
2023/12/09 00:18:27;;;;;;;11.87;11.47;;;3.10;99.90;;;;;;5123889;27;20280;-85
2023/12/09 00:20:54;;;;;;;12.33;11.93;;;3.10;99.90;;;;;;5127131;27;20220;-82
2023/12/09 00:23:23;;;;;;;12.20;11.80;;;3.10;99.90;;;;;;5132296;28;20225;-84
2023/12/09 00:25:51;;;;;;;12.27;11.87;;;3.00;99.90;;;;;;5120482;28;20296;-83
2023/12/09 00:28:19;;;;;;;12.10;11.70;;;3.00;99.90;;;;;;5120716;27;20228;-82
2023/12/09 00:30:49;;;;;;;12.10;11.70;;;3.00;99.90;;;;;;5140600;27;20284;-82
2023/12/09 00:33:17;;;;;;;12.40;12.00;;;3.00;99.90;;;;;;5140152;27;20291;-81
2023/12/09 00:35:46;;;;;;;12.37;11.97;;;3.10;99.90;;;;;;5138492;27;20315;-82
2023/12/09 00:38:22;;;;;;;12.90;12.40;;;3.00;99.90;;;;;;5136624;27;20377;-84
2023/12/09 00:40:53;;;;;;;12.43;12.03;;;3.00;99.90;;;;;;5122426;28;20519;-82
2023/12/09 00:43:21;;;;;;;12.37;11.97;;;3.00;99.90;;;;;;5124401;28;20292;-82
2023/12/09 00:45:54;;;;;;;12.20;11.80;;;3.00;99.90;;;;;;5130439;27;20220;-83
2023/12/09 00:48:22;;;;;;;12.53;12.07;;;3.00;99.90;;;;;;5137850;27;20221;-83
2023/12/09 00:50:52;;;;;;;12.37;11.93;;;3.00;99.90;;;;;;5114636;28;20240;-84
2023/12/09 00:53:24;;;;;;;12.50;12.00;;;3.00;99.90;;;;;;5105100;28;20288;-84
2023/12/09 00:55:53;;;;;;;12.60;12.10;;;3.00;99.90;;;;;;5108345;28;20271;-85
2023/12/09 00:58:21;;;;;;;12.30;11.90;;;2.90;99.90;;;;;;5104745;28;20225;-85
2023/12/09 01:00:53;;;;;;;12.17;11.77;;;3.00;99.90;;;;;;5104615;27;20310;-84
2023/12/09 01:03:20;;;;;;;12.33;11.93;;;3.00;99.90;;;;;;5104084;27;20260;-84
2023/12/09 01:05:48;;;;;;;12.50;12.10;;;3.00;99.90;;;;;;5105176;28;20237;-84
2023/12/09 01:08:18;;;;;;;12.27;11.87;;;2.90;99.90;;;;;;5111506;27;20229;-82
2023/12/09 01:10:46;;;;;;;12.17;11.77;;;3.00;99.90;;;;;;5118699;27;20275;-84
2023/12/09 01:13:17;;;;;;;12.47;12.03;;;3.00;99.90;;;;;;5105892;28;20286;-84
2023/12/09 01:15:54;;;;;;;12.37;11.97;;;3.00;99.90;;;;;;5105169;28;20272;-84
2023/12/09 01:18:21;;;;;;;12.23;11.83;;;2.90;99.90;;;;;;5105001;28;20233;-83
2023/12/09 01:20:50;;;;;;;12.27;11.87;;;2.90;99.90;;;;;;5110200;28;20240;-85
2023/12/09 01:23:21;;;;;;;12.20;11.80;;;2.90;99.90;;;;;;5105235;28;20245;-85
2023/12/09 01:25:48;;;;;;;12.30;11.90;;;2.90;99.90;;;;;;5104050;27;20247;-83
2023/12/09 01:28:17;;;;;;;12.30;11.90;;;2.90;99.90;;;;;;5105294;28;20221;-85
2023/12/09 01:30:45;;;;;;;12.27;11.87;;;2.90;99.90;;;;;;5116945;27;20209;-84
2023/12/09 01:33:14;;;;;;;12.03;11.63;;;2.90;99.90;;;;;;5117929;27;20244;-85
2023/12/09 01:35:42;;;;;;;12.27;11.87;;;3.00;99.90;;;;;;5109735;28;20229;-84
2023/12/09 01:38:10;;;;;;;12.13;11.73;;;3.00;99.90;;;;;;5118715;27;20213;-83
2023/12/09 01:40:37;;;;;;;12.13;11.73;;;3.00;99.90;;;;;;5121071;27;20231;-84
2023/12/09 01:43:10;;;;;;;12.37;11.97;;;3.00;99.90;;;;;;5110675;28;20249;-84
2023/12/09 01:45:39;;;;;;;12.13;11.73;;;3.00;99.90;;;;;;5108548;28;20225;-84
2023/12/09 01:48:09;;;;;;;12.37;11.97;;;2.90;99.90;;;;;;5106704;28;20232;-85
2023/12/09 01:50:37;;;;;;;12.27;11.87;;;2.90;99.90;;;;;;5119248;27;20234;-85
2023/12/09 01:53:06;;;;;;;12.00;11.60;;;3.00;99.90;;;;;;5125622;28;20235;-84
2023/12/09 01:55:33;;;;;;;11.93;11.53;;;3.00;99.90;;;;;;5128904;28;20242;-85
2023/12/09 01:58:04;;;;;;;12.13;11.73;;;3.00;99.90;;;;;;5119773;27;20296;-84
2023/12/09 02:00:32;;;;;;;11.97;11.57;;;3.00;99.90;;;;;;5106978;28;20221;-85
2023/12/09 02:03:06;;;;;;;11.60;11.20;;;3.00;99.90;;;;;;5107441;28;20229;-85
2023/12/09 02:05:37;;;;;;;11.67;11.27;;;3.00;99.90;;;;;;5120920;28;20249;-85
2023/12/09 02:08:05;;;;;;;11.87;11.47;;;3.10;99.90;;;;;;5123444;27;20217;-84
2023/12/09 02:10:33;;;;;;;11.60;11.20;;;3.10;99.90;;;;;;5125962;28;20233;-84
2023/12/09 02:13:13;;;;;;;12.00;11.60;;;3.20;99.90;;;;;;5118849;28;20232;-85
2023/12/09 02:15:47;;;;;;;11.83;11.43;;;3.20;99.90;;;;;;5127753;28;20279;-85
2023/12/09 02:18:19;;;;;;;11.73;11.33;;;3.20;99.90;;;;;;5127460;27;20220;-85
2023/12/09 02:20:47;;;;;;;12.03;11.63;;;3.30;99.90;;;;;;5113491;28;20230;-84
2023/12/09 02:23:16;;;;;;;11.97;11.57;;;3.30;99.90;;;;;;5107240;28;20222;-85
2023/12/09 02:25:44;;;;;;;12.03;11.63;;;3.30;99.90;;;;;;5106247;28;20328;-84
2023/12/09 02:28:18;;;;;;;12.20;11.80;;;3.30;99.90;;;;;;5106451;28;20217;-85
2023/12/09 02:30:52;;;;;;;12.00;11.60;;;3.30;99.90;;;;;;5107900;28;20242;-85
2023/12/09 02:33:21;;;;;;;11.90;11.50;;;3.30;99.90;;;;;;5107310;28;20221;-84
2023/12/09 02:35:51;;;;;;;11.90;11.50;;;3.40;99.90;;;;;;5106694;28;20229;-85
2023/12/09 02:38:21;;;;;;;11.80;11.40;;;3.40;99.90;;;;;;5105787;28;20233;-84
2023/12/09 02:40:51;;;;;;;11.83;11.43;;;3.40;99.90;;;;;;5107058;28;20232;-84
2023/12/09 02:43:19;;;;;;;11.70;11.30;;;3.40;99.90;;;;;;5107286;28;20283;-84
2023/12/09 02:45:47;;;;;;;11.70;11.30;;;3.40;99.90;;;;;;5106431;28;20252;-84
2023/12/09 02:48:18;;;;;;;11.93;11.53;;;3.40;99.90;;;;;;5110446;28;20280;-85
2023/12/09 02:50:45;;;;;;;11.90;11.50;;;3.40;99.90;;;;;;5112270;28;20229;-84
2023/12/09 02:53:16;;;;;;;11.87;11.47;;;3.40;99.90;;;;;;5118639;28;20271;-84
2023/12/09 02:55:45;;;;;;;11.77;11.37;;;3.50;99.90;;;;;;5127226;27;20232;-85
2023/12/09 02:58:15;;;;;;;12.07;11.67;;;3.50;99.90;;;;;;5126784;27;20224;-85
2023/12/09 03:00:44;;;;;;;12.03;11.63;;;3.50;99.90;;;;;;5126671;27;20228;-84
2023/12/09 03:03:12;;;;;;;11.77;11.37;;;3.40;99.90;;;;;;5125810;28;20236;-85
2023/12/09 03:05:39;;;;;;;11.80;11.40;;;3.50;99.90;;;;;;5119568;28;20288;-85
2023/12/09 03:08:10;;;;;;;11.73;11.33;;;3.50;99.90;;;;;;5126327;27;20225;-84
2023/12/09 03:10:37;;;;;;;11.70;11.30;;;3.60;99.90;;;;;;5126526;28;20224;-85
2023/12/09 03:13:06;;;;;;;11.70;11.30;;;3.60;99.90;;;;;;5126953;28;20236;-84
2023/12/09 03:15:38;;;;;;;11.80;11.40;;;3.60;99.90;;;;;;5126179;27;20225;-85
2023/12/09 03:18:08;;;;;;;11.77;11.37;;;3.60;99.90;;;;;;5125694;28;20243;-85
2023/12/09 03:20:37;;;;;;;11.63;11.23;;;3.70;99.90;;;;;;5126883;28;20316;-85
2023/12/09 03:23:07;;;;;;;11.57;11.17;;;3.60;99.90;;;;;;5127045;28;20240;-85
2023/12/09 03:25:34;;;;;;;11.60;11.20;;;3.70;99.90;;;;;;5133485;28;20236;-85
2023/12/09 03:28:04;;;;;;;11.50;11.10;;;3.70;99.90;;;;;;5132688;27;20213;-85
2023/12/09 03:30:35;;;;;;;11.73;11.33;;;3.70;99.90;;;;;;5131875;28;21069;-85
2023/12/09 03:33:02;;;;;;;11.60;11.20;;;3.70;99.90;;;;;;5127723;28;20236;-85
2023/12/09 03:35:30;;;;;;;11.53;11.13;;;3.70;99.90;;;;;;5125797;28;20236;-85
2023/12/09 03:37:57;;;;;;;11.83;11.43;;;3.70;99.90;;;;;;5125552;28;20286;-85
2023/12/09 03:40:25;;;;;;;11.80;11.40;;;3.70;99.90;;;;;;5126745;28;20224;-84
2023/12/09 03:42:54;;;;;;;11.77;11.37;;;3.60;99.90;;;;;;5125685;28;20233;-84
2023/12/09 03:45:22;;;;;;;11.57;11.17;;;3.50;99.90;;;;;;5125712;28;20228;-85
2023/12/09 03:47:51;;;;;;;11.53;11.13;;;3.50;99.90;;;;;;5126534;27;20239;-83
2023/12/09 03:50:19;;;;;;;11.43;11.03;;;3.40;99.90;;;;;;5126273;27;20255;-85
2023/12/09 03:52:46;;;;;;;11.33;10.93;;;3.40;99.90;;;;;;5126164;28;20240;-85
2023/12/09 03:55:16;;;;;;;11.47;11.07;;;3.40;99.90;;;;;;5125541;28;20339;-84
2023/12/09 03:57:43;;;;;;;11.50;11.10;;;3.50;99.90;;;;;;5125203;27;20288;-84
2023/12/09 04:00:13;;;;;;;11.53;11.13;;;3.60;99.90;;;;;;5125307;28;20241;-84
2023/12/09 04:02:40;;;;;;;11.47;11.07;;;3.70;99.90;;;;;;5125465;28;20259;-85
2023/12/09 04:05:10;;;;;;;11.43;11.03;;;3.60;99.90;;;;;;5125482;28;20292;-85
2023/12/09 04:07:40;;;;;;;11.60;11.20;;;3.60;99.90;;;;;;5124664;27;20232;-84
2023/12/09 04:10:09;;;;;;;11.40;11.00;;;3.60;99.90;;;;;;5128074;28;20228;-83
2023/12/09 04:12:37;;;;;;;11.50;11.10;;;3.60;99.90;;;;;;5127899;28;20239;-84
2023/12/09 04:15:05;;;;;;;11.43;11.03;;;3.60;99.90;;;;;;5125660;28;20229;-85
2023/12/09 04:17:32;;;;;;;11.50;11.10;;;3.60;99.90;;;;;;5125156;27;20235;-85
2023/12/09 04:20:00;;;;;;;11.37;10.97;;;3.50;99.90;;;;;;5124728;28;20236;-85
2023/12/09 04:22:31;;;;;;;11.70;11.30;;;3.50;99.90;;;;;;5124611;28;20232;-85
2023/12/09 04:24:58;;;;;;;11.60;11.20;;;3.50;99.90;;;;;;5125552;28;20233;-84
2023/12/09 04:27:27;;;;;;;11.50;11.10;;;3.50;99.90;;;;;;5125045;28;20288;-84
2023/12/09 04:29:54;;;;;;;11.70;11.30;;;3.50;99.90;;;;;;5125459;28;20229;-84
2023/12/09 04:32:22;;;;;;;11.50;11.10;;;3.50;99.90;;;;;;5125455;28;20228;-85
2023/12/09 04:34:49;;;;;;;11.50;11.10;;;3.50;99.90;;;;;;5126073;28;20216;-85
2023/12/09 04:37:17;;;;;;;11.60;11.20;;;3.50;99.90;;;;;;5125305;27;20235;-84
2023/12/09 04:39:45;;;;;;;11.40;11.00;;;3.50;99.90;;;;;;5127963;28;20232;-84
2023/12/09 04:42:14;;;;;;;11.73;11.33;;;3.50;99.90;;;;;;5128164;28;20229;-84
2023/12/09 04:44:42;;;;;;;11.63;11.23;;;3.50;99.90;;;;;;5126562;28;20233;-84
2023/12/09 04:47:09;;;;;;;11.70;11.30;;;3.50;99.90;;;;;;5124996;28;20233;-85
2023/12/09 04:49:38;;;;;;;11.50;11.10;;;3.50;99.90;;;;;;5124777;28;20271;-85
2023/12/09 04:52:08;;;;;;;11.53;11.13;;;3.50;99.90;;;;;;5124394;28;20247;-84
2023/12/09 04:54:35;;;;;;;11.80;11.40;;;3.50;99.90;;;;;;5124437;28;20221;-85
2023/12/09 04:57:04;;;;;;;11.63;11.23;;;3.60;99.90;;;;;;5123907;28;20225;-85
2023/12/09 04:59:34;;;;;;;12.00;11.60;;;3.60;99.90;;;;;;5124541;28;20237;-83
2023/12/09 05:02:03;;;;;;;11.70;11.30;;;3.60;99.90;;;;;;5124190;27;20232;-84
2023/12/09 05:04:31;;;;;;;11.70;11.30;;;3.60;99.90;;;;;;5124214;28;20229;-84
2023/12/09 05:06:58;;;;;;;11.73;11.33;;;3.50;99.90;;;;;;5123120;27;20225;-84
2023/12/09 05:09:26;;;;;;;11.70;11.30;;;3.50;99.90;;;;;;5123817;28;20237;-83
2023/12/09 05:11:53;;;;;;;11.57;11.17;;;3.50;99.90;;;;;;5124645;28;20229;-84
2023/12/09 05:14:22;;;;;;;12.00;11.60;;;3.50;99.90;;;;;;5124047;28;20228;-84
2023/12/09 05:16:50;;;;;;;11.80;11.40;;;3.50;99.90;;;;;;5124072;28;20280;-84
2023/12/09 05:19:17;;;;;;;11.90;11.50;;;3.50;99.90;;;;;;5124001;28;20241;-84
2023/12/09 05:21:46;;;;;;;11.80;11.40;;;3.40;99.90;;;;;;5124257;28;20236;-84
2023/12/09 05:24:13;;;;;;;11.87;11.47;;;3.40;99.90;;;;;;5125736;28;20291;-84
2023/12/09 05:26:41;;;;;;;11.57;11.17;;;3.40;99.90;;;;;;5124976;28;20221;-84
2023/12/09 05:29:11;;;;;;;11.50;11.10;;;3.40;99.90;;;;;;5123595;28;20233;-84
2023/12/09 05:31:43;;;;;;;11.67;11.27;;;3.40;99.90;;;;;;5124025;28;20240;-83
2023/12/09 05:34:10;;;;;;;11.60;11.20;;;3.30;99.90;;;;;;5124219;27;20236;-84
2023/12/09 05:36:38;;;;;;;11.70;11.30;;;3.30;99.90;;;;;;5123758;28;20232;-84
2023/12/09 05:39:06;;;;;;;11.70;11.30;;;3.30;99.90;;;;;;5124345;28;20236;-84
2023/12/09 05:41:37;;;;;;;11.53;11.13;;;3.30;99.90;;;;;;5127137;28;20231;-84
2023/12/09 05:44:09;;;;;;;11.73;11.33;;;3.30;99.90;;;;;;5137097;27;20232;-84
2023/12/09 05:46:37;;;;;;;11.70;11.30;;;3.40;99.90;;;;;;5128078;27;20731;-84
2023/12/09 05:49:06;;;;;;;11.80;11.40;;;3.40;99.90;;;;;;5123339;28;20233;-83
2023/12/09 05:51:34;;;;;;;11.73;11.33;;;3.40;99.90;;;;;;5125534;28;20228;-83
2023/12/09 05:54:03;;;;;;;11.70;11.30;;;3.40;99.90;;;;;;5115538;27;20263;-84
2023/12/09 05:56:31;;;;;;;11.40;11.00;;;3.50;99.90;;;;;;5103701;28;20360;-83
2023/12/09 05:59:02;;;;;;;11.60;11.20;;;3.50;99.90;;;;;;5110135;28;20256;-84
2023/12/09 06:01:30;;;;;;;11.60;11.20;;;3.60;99.90;;;;;;5111870;28;20290;-85
2023/12/09 06:04:00;;;;;;;11.53;11.13;;;3.60;99.90;;;;;;5103493;28;20241;-84
2023/12/09 06:06:29;;;;;;;11.47;11.07;;;3.60;99.90;;;;;;5103280;28;20225;-84
2023/12/09 06:08:57;;;;;;;11.70;11.30;;;3.60;99.90;;;;;;5102523;28;20311;-84
2023/12/09 06:11:25;;;;;;;11.30;10.90;;;3.60;99.90;;;;;;5103928;28;20233;-84
2023/12/09 06:13:52;;;;;;;11.23;10.83;;;3.60;99.90;;;;;;5104897;28;20224;-84
2023/12/09 06:16:20;;;;;;;11.20;10.80;;;3.60;99.90;;;;;;5120457;27;20200;-83
2023/12/09 06:18:52;;;;;;;11.30;10.90;;;3.60;99.90;;;;;;5121433;27;20216;-83
2023/12/09 06:21:24;;;;;;;11.20;10.80;;;3.70;99.90;;;;;;5121783;27;20236;-83
2023/12/09 06:23:58;;;;;;;11.40;11.00;;;3.70;99.90;;;;;;5109444;28;20221;-84
2023/12/09 06:26:26;;;;;;;11.30;10.90;;;3.70;99.90;;;;;;5107894;28;20220;-84
2023/12/09 06:28:54;;;;;;;11.23;10.83;;;3.60;99.90;;;;;;5107477;28;20234;-84
2023/12/09 06:31:21;;;;;;;11.50;11.10;;;3.60;99.90;;;;;;5108783;28;20261;-84
2023/12/09 06:33:49;;;;;;;11.27;10.87;;;3.60;99.90;;;;;;5106664;28;20307;-84
2023/12/09 06:36:16;;;;;;;11.30;10.90;;;3.60;99.90;;;;;;5106252;28;20221;-84
2023/12/09 06:38:44;;;;;;;11.10;10.70;;;3.60;99.90;;;;;;5106063;28;20248;-84
2023/12/09 06:41:15;;;;;;;11.00;10.60;;;3.70;99.90;;;;;;5106356;28;20233;-84
2023/12/09 06:43:44;;;;;;;11.13;10.73;;;3.70;99.90;;;;;;5107016;28;20252;-84
2023/12/09 06:46:14;;;;;;;10.83;10.43;;;3.70;99.90;;;;;;5106452;28;20265;-84
2023/12/09 06:48:45;;;;;;;11.30;10.90;;;3.70;99.90;;;;;;5106528;28;20267;-84
2023/12/09 06:51:15;;;;;;;11.13;10.73;;;3.70;99.90;;;;;;5108770;28;20229;-84
2023/12/09 06:53:47;;;;;;;11.10;10.70;;;3.60;99.90;;;;;;5114320;28;20280;-84
2023/12/09 06:56:23;;;;;;;11.40;11.00;;;3.70;99.90;;;;;;5113305;28;20217;-84
2023/12/09 06:58:51;;;;;;;11.13;10.73;;;3.70;99.90;;;;;;5107601;28;20229;-84
2023/12/09 07:01:22;;;;;;;11.60;11.20;;;3.60;99.90;;;;;;5106585;28;20237;-85
2023/12/09 07:03:50;;;;;;;11.23;10.83;;;3.60;99.90;;;;;;5106253;28;20237;-84
2023/12/09 07:06:21;;;;;;;11.50;11.10;;;3.70;99.90;;;;;;5106404;28;20253;-83
2023/12/09 07:08:48;;;;;;;11.20;10.80;;;3.60;99.90;;;;;;5105766;28;20241;-83
2023/12/09 07:11:18;;;;;;;11.50;11.10;;;3.60;99.90;;;;;;5105900;28;20264;-82
2023/12/09 07:13:47;;;;;;;11.17;10.77;;;3.60;99.90;;;;;;5106927;28;20256;-86
2023/12/09 07:16:15;;;;;;;11.10;10.70;;;3.60;99.90;;;;;;5107060;28;20237;-84
2023/12/09 07:18:46;;;;;;;11.30;10.90;;;3.60;99.90;;;;;;5115097;28;20228;-84
2023/12/09 07:21:13;;;;;;;11.50;11.10;;;3.60;99.90;;;;;;5117208;28;20248;-84
2023/12/09 07:23:41;;;;;;;11.60;11.20;;;3.60;99.90;;;;;;5106762;28;20222;-84
2023/12/09 07:26:09;;;;;;;11.50;11.10;;;3.60;99.90;;;;;;5120419;28;20266;-84
2023/12/09 07:28:36;;;;;;;11.13;10.73;;;3.60;99.90;;;;;;5107222;28;20235;-84
2023/12/09 07:31:06;;;;;;;10.90;10.50;;;3.60;99.90;;;;;;5105420;28;20231;-84
2023/12/09 07:33:33;;;;;;;11.50;11.10;;;3.60;99.90;;;;;;5109775;28;20240;-84
2023/12/09 07:36:01;;;;;;;11.20;10.80;;;3.70;99.90;;;;;;5117892;28;20236;-85
2023/12/09 07:38:29;;;;;;;11.33;10.93;;;3.70;99.90;;;;;;5125953;28;20241;-85
2023/12/09 07:40:57;;;;;;;11.30;10.90;;;3.70;99.90;;;;;;5126954;28;20233;-83
2023/12/09 07:43:24;;;;;;;11.80;11.40;;;3.70;99.90;;;;;;5126387;28;20418;-84
2023/12/09 07:45:51;;;;;;;11.67;11.27;;;3.70;99.90;;;;;;5127448;28;20241;-85
2023/12/09 07:48:23;;;;;;;11.50;11.10;;;3.70;99.90;;;;;;5126289;28;20239;-87
2023/12/09 07:50:51;;;;;;;11.50;11.10;;;3.70;99.90;;;;;;5130434;28;20229;-86
2023/12/09 07:53:18;;;;;;;11.30;10.90;;;3.70;99.90;;;;;;5133233;28;20262;-86
2023/12/09 07:55:46;;;;;;;11.30;10.90;;;3.70;99.90;;;;;;5135828;27;20306;-85
2023/12/09 08:00:49;;;;;;;11.40;11.00;;;3.70;99.90;;;;;;5129777;28;20233;-85
2023/12/09 08:03:17;;;;;;;11.23;10.83;;;3.70;99.90;;;;;;5132926;27;20220;-85
2023/12/09 08:06:36;;;;;;;11.53;11.13;;;3.70;99.90;;;;;;5131662;27;20240;-88
2023/12/09 08:09:11;;;;;;;11.50;11.10;;;3.70;99.90;;;;;;5118045;27;20228;-85
2023/12/09 08:12:12;;;;;;;;;;;;;;;;;;;;;
2023/12/09 08:14:39;;;;;;;10.93;10.57;;;3.70;99.90;;;;;;5140948;27;20197;-83
2023/12/09 08:17:05;;;;;;;11.30;10.90;;;3.80;99.90;;;;;;5141080;27;20213;-86
2023/12/09 08:19:33;;;;;;;10.90;10.60;;;3.80;99.90;;;;;;5141305;27;20221;-83
2023/12/09 08:22:02;;;;;;;11.10;10.70;;;3.80;99.90;;;;;;5127186;27;20225;-85
2023/12/09 08:24:36;;;;;;;10.80;10.50;;;3.90;99.90;;;;;;5125304;27;20209;-85
2023/12/09 08:27:11;;;;;;;11.07;10.67;;;3.90;99.90;;;;;;5121170;27;20265;-84
2023/12/09 08:29:38;;;;;;;10.80;10.50;;;3.90;99.90;;;;;;5121512;27;20227;-85
2023/12/09 08:32:08;;;;;;;10.67;10.37;;;3.90;99.90;;;;;;5121084;27;20209;-85
2023/12/09 08:34:49;;;;;;;11.13;10.73;;;3.90;99.90;;;;;;5121339;27;20319;-84
2023/12/09 08:37:26;;;;;;;10.63;10.33;;;3.90;99.90;;;;;;5121347;27;20190;-85
2023/12/09 08:39:57;;;;;;;10.90;10.60;;;4.00;99.90;;;;;;5122467;27;20276;-86
2023/12/09 08:42:26;;;;;;;10.33;10.03;;;4.00;99.90;;;;;;5122154;27;20213;-85
2023/12/09 08:45:32;;;;;;;;;;;;;;;;;;;;;
2023/12/09 08:48:06;;;;;;;10.80;10.50;;;4.00;99.90;;;;;;5123444;27;20217;-84
2023/12/09 08:50:36;;;;;;;10.60;10.30;;;4.10;99.90;;;;;;5121250;27;20217;-86
2023/12/09 08:53:23;;;;;;;10.27;9.97;;;4.20;99.90;;;;;;5129361;28;20235;-85
2023/12/09 08:55:56;;;;;;;10.73;10.43;;;4.30;99.90;;;;;;5139672;27;20213;-86
2023/12/09 08:58:24;;;;;;;10.30;10.00;;;4.30;99.90;;;;;;5141676;27;20209;-85
2023/12/09 09:00:53;;;;;;;10.30;10.00;;;4.30;99.90;;;;;;5161969;27;20243;-85
2023/12/09 09:03:21;;;;;;;10.50;10.20;;;4.30;99.90;;;;;;5162129;27;20232;-85
2023/12/09 09:05:54;;;;;;;10.47;10.17;;;4.30;99.90;;;;;;5162216;27;20224;-84
2023/12/09 09:08:25;;;;;;;10.37;10.07;;;4.30;99.90;;;;;;5161629;27;20204;-85
2023/12/09 09:10:53;;;;;;;10.40;10.10;;;4.30;99.90;;;;;;5162642;27;20223;-84
2023/12/09 09:13:23;;;;;;;10.70;10.40;;;4.40;99.90;;;;;;5162534;27;20215;-85
2023/12/09 09:15:51;;;;;;;10.67;10.37;;;4.40;99.90;;;;;;5162558;27;20236;-85
2023/12/09 09:18:19;;;;;;;10.33;10.03;;;4.40;99.90;;;;;;5161983;27;20220;-84
2023/12/09 09:20:46;;;;;;;10.10;9.80;;;4.40;99.90;;;;;;5162407;27;20255;-84
2023/12/09 09:23:18;;;;;;;10.33;10.03;;;4.40;99.90;;;;;;5162127;27;20262;-86
2023/12/09 09:25:48;;;;;;;9.90;9.60;;;4.40;99.90;;;;;;5153753;27;20220;-85
2023/12/09 09:28:15;;;;;;;10.37;10.07;;;4.40;99.90;;;;;;5147459;27;20211;-85
2023/12/09 09:30:43;;;;;;;10.37;10.07;;;4.40;99.90;;;;;;5147107;27;20231;-86
2023/12/09 09:33:17;;;;;;;10.50;10.20;;;4.40;99.90;;;;;;5146985;27;20224;-86
2023/12/09 09:35:51;;;;;;;10.37;10.07;;;4.40;99.90;;;;;;5148628;27;20218;-85
2023/12/09 09:38:18;;;;;;;10.53;10.23;;;4.40;99.90;;;;;;5148515;27;20236;-86
2023/12/09 09:40:52;;;;;;;10.60;10.30;;;4.40;99.90;;;;;;5148551;27;20232;-87
2023/12/09 09:43:26;;;;;;;10.50;10.20;;;4.50;99.90;;;;;;5149868;27;20315;-86
2023/12/09 09:46:03;;;;;;;10.23;9.93;;;4.60;99.90;;;;;;5148743;27;20224;-86
2023/12/09 09:48:38;;;;;;;10.37;10.07;;;4.60;99.90;;;;;;5127413;27;20217;-88
2023/12/09 09:51:17;;;;;;;10.37;10.07;;;4.70;99.90;;;;;;5132270;28;20318;-87
2023/12/09 09:53:54;;;;;;;10.50;10.20;;;4.70;99.90;;;;;;5132399;27;20228;-84
2023/12/09 09:56:26;;;;;;;10.50;10.20;;;5.00;99.90;;;;;;5143714;27;20240;-82
2023/12/09 09:58:54;;;;;;;10.23;9.93;;;5.10;99.90;;;;;;5135055;28;20220;-84
2023/12/09 10:01:24;;;;;;;10.60;10.30;;;5.10;99.90;;;;;;5133504;28;20251;-84
2023/12/09 10:03:52;;;;;;;10.50;10.20;;;4.90;99.90;;;;;;5132233;27;20235;-84
2023/12/09 10:06:36;;;;;;;10.57;10.27;;;4.80;99.90;;;;;;5131388;28;20220;-84
2023/12/09 10:09:09;;;;;;;10.60;10.30;;;4.70;99.90;;;;;;5148101;27;20247;-84
2023/12/09 10:11:39;;;;;;;10.40;10.10;;;4.60;99.90;;;;;;5146410;27;20241;-82
2023/12/09 10:14:23;;;;;;;10.67;10.37;;;4.60;99.90;;;;;;5144908;27;20224;-86
2023/12/09 10:16:59;;;;;;;10.40;10.10;;;4.60;99.90;;;;;;5141933;27;20249;-85
2023/12/09 10:19:36;;;;;;;10.37;10.07;;;4.60;99.90;;;;;;5136737;27;20240;-83
2023/12/09 10:22:04;;;;;;;10.20;9.90;;;4.50;99.90;;;;;;5133722;28;20353;-83
2023/12/09 10:24:34;;;;;;;10.33;10.03;;;4.50;99.90;;;;;;5134682;28;20225;-83
2023/12/09 10:27:03;;;;;;;10.37;10.07;;;4.40;99.90;;;;;;5134109;27;20224;-84
2023/12/09 10:29:40;;;;;;;10.07;9.77;;;4.40;99.90;;;;;;5132327;28;20246;-82
2023/12/09 10:32:09;;;;;;;10.30;10.00;;;4.50;99.90;;;;;;5131724;28;20237;-83
2023/12/09 10:34:37;;;;;;;10.27;9.97;;;4.50;99.90;;;;;;5133740;28;20233;-83
2023/12/09 10:37:04;;;;;;;10.67;10.37;;;4.40;99.90;;;;;;5134153;28;20221;-83
2023/12/09 10:39:38;;;;;;;10.50;10.20;;;4.40;99.90;;;;;;5134755;28;20221;-83
2023/12/09 10:42:07;;;;;;;10.60;10.30;;;4.40;99.90;;;;;;5133396;28;20243;-84
2023/12/09 10:44:35;;;;;;;10.67;10.37;;;4.30;99.90;;;;;;5136528;27;20272;-83
2023/12/09 10:47:04;;;;;;;10.67;10.37;;;4.30;99.90;;;;;;5140343;27;20239;-84
2023/12/09 10:49:32;;;;;;;10.73;10.43;;;4.30;99.90;;;;;;5134676;27;20227;-84
2023/12/09 10:51:59;;;;;;;10.47;10.17;;;4.30;99.90;;;;;;5137331;27;20224;-83
2023/12/09 10:54:28;;;;;;;10.80;10.50;;;4.30;99.90;;;;;;5149203;27;20232;-85
2023/12/09 10:57:09;;;;;;;10.80;10.50;;;4.30;99.90;;;;;;5152832;27;20292;-83
2023/12/09 10:59:37;;;;;;;10.87;10.57;;;4.20;99.90;;;;;;5144182;27;20215;-83
2023/12/09 11:02:10;;;;;;;11.10;10.70;;;4.20;99.90;;;;;;5141745;27;20241;-82
2023/12/09 11:04:37;;;;;;;10.70;10.40;;;4.30;99.90;;;;;;5141983;27;20244;-82
2023/12/09 11:07:08;;;;;;;10.63;10.33;;;4.30;99.90;;;;;;5134182;27;20228;-83
2023/12/09 11:09:40;;;;;;;11.00;10.60;;;4.30;99.90;;;;;;5129637;28;20225;-83
2023/12/09 11:12:27;;;;;;;10.83;10.50;;;4.30;99.90;;;;;;5145670;27;20227;-86
2023/12/09 11:14:55;;;;;;;10.80;10.50;;;4.20;99.90;;;;;;5142149;27;20281;-85
2023/12/09 11:17:35;;;;;;;10.70;10.40;;;4.20;99.90;;;;;;5148474;27;20234;-85
2023/12/09 11:20:12;;;;;;;10.87;10.50;;;4.10;99.90;;;;;;5148961;27;20281;-83
2023/12/09 11:22:41;;;;;;;11.10;10.70;;;4.00;99.90;;;;;;5148277;27;20241;-84
2023/12/09 11:25:12;;;;;;;10.87;10.53;;;4.00;99.90;;;;;;5148716;27;20239;-83
2023/12/09 11:27:40;;;;;;;10.50;10.20;;;4.00;99.90;;;;;;5154303;27;20228;-84
2023/12/09 11:30:29;;;;;;;10.63;10.33;;;3.90;99.90;;;;;;5159767;27;20220;-83
2023/12/09 11:32:57;;;;;;;10.47;10.17;;;4.00;99.90;;;;;;5162392;27;20235;-83
2023/12/09 11:35:26;;;;;;;10.53;10.23;;;3.90;99.90;;;;;;5151685;27;20238;-84
2023/12/09 11:40:47;;;;;;;10.47;10.17;;;3.80;99.90;;;;;;5129774;28;20209;-85
2023/12/09 11:43:19;;;;;;;10.50;10.20;;;3.80;99.90;;;;;;5129902;28;20232;-85
2023/12/09 11:45:48;;;;;;;10.60;10.30;;;3.80;99.90;;;;;;5130053;28;20239;-85
2023/12/09 11:48:16;;;;;;;10.57;10.27;;;3.80;99.90;;;;;;5130141;28;20297;-85
2023/12/09 11:50:45;;;;;;;10.63;10.33;;;3.80;99.90;;;;;;5130632;28;20233;-85
2023/12/09 11:53:15;;;;;;;10.50;10.20;;;3.90;99.90;;;;;;5130094;28;20232;-85
2023/12/09 11:55:45;;;;;;;10.70;10.33;;;3.90;99.90;;;;;;5130231;28;20232;-85
2023/12/09 11:58:13;;;;;;;11.17;10.77;;;3.90;99.90;;;;;;5129820;28;20255;-85
2023/12/09 12:00:46;;;;;;;11.00;10.60;;;3.90;99.90;;;;;;5129076;28;20302;-85
2023/12/09 12:03:13;;;;;;;11.10;10.70;;;3.90;99.90;;;;;;5133138;27;20223;-85
2023/12/09 12:05:42;;;;;;;11.30;10.90;;;3.80;99.90;;;;;;5133369;28;20233;-86
2023/12/09 12:08:21;;;;;;;11.07;10.67;;;3.80;99.90;;;;;;5130601;28;20232;-86
2023/12/09 12:10:50;;;;;;;11.20;10.80;;;3.90;99.90;;;;;;5131877;27;20228;-85
2023/12/09 12:13:19;;;;;;;10.47;10.17;;;3.90;99.90;;;;;;5131462;28;20228;-85
2023/12/09 12:18:36;;;;;;;10.77;10.47;;;4.00;99.90;;;;;;5127642;28;20251;-85
2023/12/09 12:21:05;;;;;;;11.00;10.60;;;4.00;99.90;;;;;;5129975;28;20208;-85
2023/12/09 12:23:35;;;;;;;10.93;10.53;;;4.10;99.90;;;;;;5137455;28;20236;-85
2023/12/09 12:34:17;;;;;;;10.60;10.30;;;4.10;99.90;;;;;;5128151;28;20247;-85
2023/12/09 12:36:45;;;;;;;10.70;10.40;;;4.20;99.90;;;;;;5130159;28;20233;-85
2023/12/09 12:41:54;;;;;;;10.90;10.50;;;4.20;99.90;;;;;;5127801;28;20223;-85
2023/12/09 12:44:24;;;;;;;11.00;10.60;;;4.10;99.90;;;;;;5129155;28;20233;-86
2023/12/09 12:46:55;;;;;;;11.10;10.70;;;4.20;99.90;;;;;;5129105;28;20228;-85
2023/12/09 12:49:22;;;;;;;10.87;10.50;;;4.20;99.90;;;;;;5129278;28;20236;-85
2023/12/09 12:51:51;;;;;;;10.93;10.53;;;4.20;99.90;;;;;;5128589;28;20212;-84
2023/12/09 12:54:24;;;;;;;10.90;10.50;;;4.30;99.90;;;;;;5128881;28;20296;-85
2023/12/09 12:56:52;;;;;;;10.60;10.30;;;4.30;99.90;;;;;;5129311;28;20221;-85
2023/12/09 13:02:02;;;;;;;11.13;10.73;;;4.40;99.90;;;;;;5127564;28;20228;-84
2023/12/09 13:04:30;;;;;;;10.83;10.53;;;4.40;99.90;;;;;;5128766;28;20325;-85
2023/12/09 13:06:56;;;;;;;10.80;10.50;;;4.40;99.90;;;;;;5128742;28;20232;-85
2023/12/09 13:12:07;;;;;;;10.53;10.23;;;4.50;99.90;;;;;;5127958;28;20243;-85
2023/12/09 13:14:35;;;;;;;10.50;10.20;;;4.50;99.90;;;;;;5128627;28;20232;-85
2023/12/09 13:17:07;;;;;;;10.57;10.27;;;4.50;99.90;;;;;;5127928;28;20229;-85
2023/12/09 13:19:35;;;;;;;11.00;10.60;;;4.50;99.90;;;;;;5128342;28;20225;-85